createdAt,value
2022-11-09T00:00:05.314Z,79.8
2022-11-09T00:01:05.905Z,80.0
2022-11-09T00:02:06.499Z,79.4
2022-11-09T00:03:07.096Z,79.7
2022-11-09T00:04:07.684Z,79.3
2022-11-09T00:05:08.276Z,79.6
2022-11-09T00:06:08.868Z,79.9
2022-11-09T00:07:09.569Z,78.7
2022-11-09T00:08:10.142Z,78.9
2022-11-09T00:09:10.733Z,78.4
2022-11-09T00:10:11.378Z,78.1
2022-11-09T00:11:11.916Z,78.5
2022-11-09T00:12:12.508Z,77.6
2022-11-09T00:13:13.104Z,77.6
2022-11-09T00:14:13.697Z,77.7
2022-11-09T00:15:14.292Z,78.8
2022-11-09T00:16:14.882Z,78.4
2022-11-09T00:17:15.479Z,77.9
2022-11-09T00:18:16.072Z,77.3
2022-11-09T00:19:16.661Z,78.1
2022-11-09T00:20:17.268Z,77.9
2022-11-09T00:21:17.879Z,77.7
2022-11-09T00:22:18.472Z,78.5
2022-11-09T00:23:19.401Z,77.4
2022-11-09T00:24:20.103Z,77.6
2022-11-09T00:25:20.698Z,78.0
2022-11-09T00:26:21.290Z,77.7
2022-11-09T00:27:21.885Z,77.4
2022-11-09T00:28:22.481Z,77.5
2022-11-09T00:29:23.069Z,77.3
2022-11-09T00:30:23.682Z,78.2
2022-11-09T00:31:24.279Z,78.0
2022-11-09T00:32:27.810Z,77.7
2022-11-09T00:33:26.455Z,77.7
2022-11-09T00:34:27.046Z,78.5
2022-11-09T00:35:27.640Z,78.4
2022-11-09T00:36:28.229Z,78.4
2022-11-09T00:37:28.929Z,78.5
2022-11-09T00:38:29.483Z,77.6
2022-11-09T00:39:30.077Z,77.8
2022-11-09T00:40:30.668Z,78.1
2022-11-09T00:41:31.260Z,78.1
2022-11-09T00:42:31.854Z,77.9
2022-11-09T00:43:32.447Z,78.1
2022-11-09T00:44:33.205Z,77.9
2022-11-09T00:45:33.807Z,77.7
2022-11-09T00:46:34.392Z,78.2
2022-11-09T00:47:35.193Z,77.8
2022-11-09T00:48:35.804Z,77.9
2022-11-09T00:49:36.400Z,78.0
2022-11-09T00:50:36.992Z,78.1
2022-11-09T00:51:37.585Z,78.3
2022-11-09T00:52:38.176Z,78.4
2022-11-09T00:53:38.770Z,78.5
2022-11-09T00:54:39.363Z,78.1
2022-11-09T00:55:39.956Z,77.6
2022-11-09T00:56:40.555Z,78.1
2022-11-09T00:57:41.162Z,78.2
2022-11-09T00:58:41.756Z,78.5
2022-11-09T00:59:42.347Z,78.3
2022-11-09T01:00:43.003Z,78.5
2022-11-09T01:01:43.631Z,78.5
2022-11-09T01:02:44.175Z,78.0
2022-11-09T01:03:44.768Z,77.6
2022-11-09T01:04:45.359Z,78.1
2022-11-09T01:05:45.954Z,78.0
2022-11-09T01:06:46.628Z,78.4
2022-11-09T01:07:47.211Z,78.5
2022-11-09T01:08:47.821Z,77.8
2022-11-09T01:09:48.415Z,77.9
2022-11-09T01:10:49.030Z,78.0
2022-11-09T01:11:49.639Z,78.2
2022-11-09T01:12:50.233Z,77.9
2022-11-09T01:13:50.846Z,77.9
2022-11-09T01:14:51.438Z,78.0
2022-11-09T01:15:52.030Z,77.9
2022-11-09T01:16:52.631Z,77.8
2022-11-09T01:17:53.235Z,77.9
2022-11-09T01:18:53.829Z,78.8
2022-11-09T01:19:54.420Z,77.7
2022-11-09T01:20:55.016Z,78.2
2022-11-09T01:21:55.607Z,77.9
2022-11-09T01:22:56.199Z,77.9
2022-11-09T01:23:56.793Z,78.3
2022-11-09T01:24:57.384Z,78.0
2022-11-09T01:25:57.979Z,77.1
2022-11-09T01:26:58.572Z,77.2
2022-11-09T01:27:59.165Z,77.2
2022-11-09T01:28:59.778Z,77.8
2022-11-09T01:30:00.372Z,77.7
2022-11-09T01:31:00.964Z,77.4
2022-11-09T01:32:01.561Z,76.9
2022-11-09T01:33:02.152Z,77.4
2022-11-09T01:34:02.745Z,77.2
2022-11-09T01:35:03.363Z,77.0
2022-11-09T01:36:03.974Z,77.1
2022-11-09T01:37:04.560Z,77.1
2022-11-09T01:38:05.158Z,76.8
2022-11-09T01:39:05.746Z,77.2
2022-11-09T01:40:06.343Z,76.4
2022-11-09T01:41:06.953Z,76.3
2022-11-09T01:42:07.547Z,76.4
2022-11-09T01:43:08.138Z,76.7
2022-11-09T01:44:08.743Z,77.0
2022-11-09T01:45:09.329Z,76.8
2022-11-09T01:46:09.924Z,76.6
2022-11-09T01:47:10.517Z,76.8
2022-11-09T01:48:11.108Z,77.1
2022-11-09T01:49:11.700Z,77.5
2022-11-09T01:50:12.295Z,77.1
2022-11-09T01:51:12.887Z,77.5
2022-11-09T01:52:13.482Z,77.1
2022-11-09T01:53:14.069Z,77.5
2022-11-09T01:54:14.684Z,77.8
2022-11-09T01:55:15.275Z,77.5
2022-11-09T01:56:15.868Z,77.5
2022-11-09T01:57:16.458Z,77.9
2022-11-09T01:58:17.053Z,77.5
2022-11-09T01:59:17.646Z,77.8
2022-11-09T02:00:18.260Z,77.5
2022-11-09T02:01:18.951Z,77.4
2022-11-09T02:02:19.475Z,77.3
2022-11-09T02:03:20.298Z,77.1
2022-11-09T02:04:20.673Z,77.2
2022-11-09T02:05:21.282Z,77.6
2022-11-09T02:06:21.880Z,77.9
2022-11-09T02:07:22.488Z,77.6
2022-11-09T02:08:23.091Z,77.2
2022-11-09T02:09:23.678Z,77.6
2022-11-09T02:10:24.270Z,77.9
2022-11-09T02:11:24.860Z,77.8
2022-11-09T02:12:25.454Z,77.3
2022-11-09T02:13:26.054Z,77.8
2022-11-09T02:14:26.658Z,77.4
2022-11-09T02:15:27.247Z,77.6
2022-11-09T02:16:27.842Z,77.2
2022-11-09T02:17:28.434Z,77.2
2022-11-09T02:18:29.029Z,77.8
2022-11-09T02:19:29.620Z,77.3
2022-11-09T02:20:30.214Z,77.9
2022-11-09T02:21:30.809Z,78.2
2022-11-09T02:22:31.400Z,77.8
2022-11-09T02:23:31.992Z,77.9
2022-11-09T02:24:32.585Z,78.2
2022-11-09T02:25:33.177Z,77.9
2022-11-09T02:26:33.775Z,78.0
2022-11-09T02:27:34.365Z,78.2
2022-11-09T02:28:34.991Z,78.2
2022-11-09T02:29:35.574Z,78.4
2022-11-09T02:30:36.167Z,78.4
2022-11-09T02:31:36.765Z,77.6
2022-11-09T02:32:37.353Z,77.9
2022-11-09T02:33:37.948Z,78.9
2022-11-09T02:34:38.539Z,79.3
2022-11-09T02:35:39.135Z,79.3
2022-11-09T02:36:39.725Z,79.4
2022-11-09T02:37:40.320Z,79.4
2022-11-09T02:38:40.912Z,78.8
2022-11-09T02:39:41.503Z,79.1
2022-11-09T02:40:42.097Z,78.4
2022-11-09T02:41:42.695Z,79.1
2022-11-09T02:42:43.284Z,79.3
2022-11-09T02:43:43.877Z,79.4
2022-11-09T02:44:44.469Z,80.0
2022-11-09T02:45:45.063Z,79.3
2022-11-09T02:46:45.654Z,79.4
2022-11-09T02:47:46.253Z,79.8
2022-11-09T02:48:46.842Z,79.0
2022-11-09T02:49:47.435Z,79.2
2022-11-09T02:50:48.037Z,79.1
2022-11-09T02:51:48.620Z,78.9
2022-11-09T02:52:49.215Z,79.6
2022-11-09T02:53:49.806Z,79.8
2022-11-09T02:54:50.399Z,79.8
2022-11-09T02:55:50.995Z,80.1
2022-11-09T02:56:51.608Z,79.8
2022-11-09T02:57:52.222Z,79.7
2022-11-09T02:58:52.813Z,79.6
2022-11-09T02:59:53.405Z,79.6
2022-11-09T03:00:54.063Z,79.8
2022-11-09T03:01:54.600Z,80.1
2022-11-09T03:02:55.194Z,80.9
2022-11-09T03:03:55.788Z,80.4
2022-11-09T03:04:56.381Z,80.7
2022-11-09T03:05:56.976Z,80.7
2022-11-09T03:06:57.660Z,80.1
2022-11-09T03:07:58.226Z,80.6
2022-11-09T03:08:58.821Z,80.2
2022-11-09T03:09:59.432Z,79.8
2022-11-09T03:11:00.023Z,79.4
2022-11-09T03:12:00.617Z,79.2
2022-11-09T03:13:01.210Z,78.6
2022-11-09T03:14:01.803Z,78.6
2022-11-09T03:15:02.398Z,79.1
2022-11-09T03:16:02.989Z,79.4
2022-11-09T03:17:03.601Z,79.8
2022-11-09T03:18:04.195Z,79.6
2022-11-09T03:19:04.787Z,80.1
2022-11-09T03:20:05.381Z,80.1
2022-11-09T03:21:05.971Z,80.7
2022-11-09T03:22:06.567Z,80.0
2022-11-09T03:23:07.162Z,79.9
2022-11-09T03:24:07.751Z,80.0
2022-11-09T03:25:08.343Z,79.8
2022-11-09T03:26:08.933Z,80.8
2022-11-09T03:27:09.528Z,80.9
2022-11-09T03:28:10.119Z,80.8
2022-11-09T03:29:10.713Z,80.0
2022-11-09T03:30:11.305Z,79.9
2022-11-09T03:31:11.896Z,79.8
2022-11-09T03:32:12.490Z,80.1
2022-11-09T03:33:13.082Z,80.6
2022-11-09T03:34:13.675Z,80.7
2022-11-09T03:35:14.267Z,80.7
2022-11-09T03:36:14.859Z,80.7
2022-11-09T03:37:15.507Z,80.8
2022-11-09T03:38:16.055Z,80.7
2022-11-09T03:39:16.651Z,81.3
2022-11-09T03:40:17.241Z,81.0
2022-11-09T03:41:17.832Z,79.9
2022-11-09T03:42:18.426Z,80.3
2022-11-09T03:43:19.390Z,80.6
2022-11-09T03:44:20.178Z,80.4
2022-11-09T03:45:20.769Z,80.5
2022-11-09T03:46:21.364Z,80.4
2022-11-09T03:47:21.964Z,80.7
2022-11-09T03:48:22.546Z,79.9
2022-11-09T03:49:23.140Z,79.9
2022-11-09T03:50:23.734Z,80.5
2022-11-09T03:51:24.344Z,80.9
2022-11-09T03:52:24.936Z,81.3
2022-11-09T03:53:25.528Z,81.4
2022-11-09T03:54:26.122Z,81.6
2022-11-09T03:55:26.715Z,82.0
2022-11-09T03:56:27.310Z,81.7
2022-11-09T03:57:27.919Z,81.8
2022-11-09T03:58:28.512Z,81.6
2022-11-09T03:59:29.106Z,82.3
2022-11-09T04:00:29.702Z,82.4
2022-11-09T04:01:30.465Z,82.3
2022-11-09T04:02:31.025Z,82.3
2022-11-09T04:03:31.618Z,81.9
2022-11-09T04:04:32.213Z,82.3
2022-11-09T04:05:32.809Z,82.3
2022-11-09T04:06:33.457Z,82.3
2022-11-09T04:07:34.023Z,82.4
2022-11-09T04:08:34.614Z,82.7
2022-11-09T04:09:35.207Z,83.1
2022-11-09T04:10:35.804Z,82.3
2022-11-09T04:11:36.402Z,82.7
2022-11-09T04:12:36.985Z,83.0
2022-11-09T04:13:37.576Z,83.0
2022-11-09T04:14:38.206Z,83.5
2022-11-09T04:15:38.784Z,83.8
2022-11-09T04:16:39.379Z,84.5
2022-11-09T04:17:39.969Z,83.7
2022-11-09T04:18:40.566Z,83.9
2022-11-09T04:19:41.157Z,82.9
2022-11-09T04:20:41.755Z,83.1
2022-11-09T04:21:42.364Z,83.6
2022-11-09T04:22:42.976Z,83.7
2022-11-09T04:23:43.570Z,83.0
2022-11-09T04:24:44.182Z,83.8
2022-11-09T04:25:44.771Z,83.8
2022-11-09T04:26:45.365Z,84.2
2022-11-09T04:27:45.957Z,83.9
2022-11-09T04:28:46.551Z,83.8
2022-11-09T04:29:47.142Z,84.2
2022-11-09T04:30:47.736Z,83.8
2022-11-09T04:31:48.325Z,84.3
2022-11-09T04:32:48.921Z,84.2
2022-11-09T04:33:49.512Z,84.0
2022-11-09T04:34:50.104Z,84.0
2022-11-09T04:35:50.697Z,84.0
2022-11-09T04:36:51.292Z,84.4
2022-11-09T04:37:51.884Z,85.1
2022-11-09T04:38:52.477Z,84.9
2022-11-09T04:39:53.067Z,84.9
2022-11-09T04:40:53.661Z,84.6
2022-11-09T04:41:54.254Z,84.8
2022-11-09T04:42:54.856Z,84.6
2022-11-09T04:43:55.438Z,84.7
2022-11-09T04:44:56.052Z,84.9
2022-11-09T04:45:56.641Z,84.8
2022-11-09T04:46:57.254Z,84.5
2022-11-09T04:47:57.864Z,84.9
2022-11-09T04:48:58.460Z,84.6
2022-11-09T04:49:59.052Z,84.7
2022-11-09T04:50:59.645Z,84.8
2022-11-09T04:52:00.236Z,85.4
2022-11-09T04:53:04.073Z,85.3
2022-11-09T04:54:02.413Z,85.0
2022-11-09T04:55:03.010Z,84.5
2022-11-09T04:56:03.621Z,84.8
2022-11-09T04:57:04.219Z,84.7
2022-11-09T04:58:04.805Z,84.9
2022-11-09T04:59:05.398Z,84.4
2022-11-09T05:00:05.991Z,84.4
2022-11-09T05:01:06.590Z,84.4
2022-11-09T05:02:07.198Z,84.8
2022-11-09T05:03:07.791Z,84.5
2022-11-09T05:04:08.416Z,84.9
2022-11-09T05:05:08.983Z,84.5
2022-11-09T05:06:09.575Z,84.8
2022-11-09T05:07:10.223Z,84.3
2022-11-09T05:08:10.792Z,83.8
2022-11-09T05:09:11.386Z,83.8
2022-11-09T05:10:11.988Z,84.5
2022-11-09T05:11:12.573Z,84.6
2022-11-09T05:12:13.164Z,84.3
2022-11-09T05:13:13.757Z,83.7
2022-11-09T05:14:14.351Z,84.2
2022-11-09T05:15:14.948Z,83.3
2022-11-09T05:16:15.559Z,84.1
2022-11-09T05:17:16.152Z,84.1
2022-11-09T05:18:16.744Z,84.1
2022-11-09T05:19:17.338Z,84.0
2022-11-09T05:20:17.932Z,84.2
2022-11-09T05:21:18.523Z,84.1
2022-11-09T05:22:19.116Z,83.9
2022-11-09T05:23:19.992Z,84.1
2022-11-09T05:24:20.750Z,84.1
2022-11-09T05:25:21.360Z,84.2
2022-11-09T05:26:21.952Z,84.1
2022-11-09T05:27:22.547Z,84.3
2022-11-09T05:28:23.139Z,84.1
2022-11-09T05:29:23.733Z,83.9
2022-11-09T05:30:24.331Z,83.6
2022-11-09T05:31:24.919Z,83.4
2022-11-09T05:32:25.531Z,84.2
2022-11-09T05:33:26.126Z,83.3
2022-11-09T05:34:26.719Z,83.8
2022-11-09T05:35:27.310Z,83.1
2022-11-09T05:36:27.929Z,83.2
2022-11-09T05:37:28.497Z,83.0
2022-11-09T05:38:29.106Z,83.2
2022-11-09T05:39:29.699Z,83.6
2022-11-09T05:40:30.293Z,83.4
2022-11-09T05:41:30.889Z,83.7
2022-11-09T05:42:31.481Z,83.7
2022-11-09T05:43:32.073Z,83.9
2022-11-09T05:44:32.664Z,83.7
2022-11-09T05:45:42.550Z,83.5
2022-11-09T05:46:34.844Z,84.3
2022-11-09T05:47:35.438Z,84.4
2022-11-09T05:48:36.029Z,84.1
2022-11-09T05:49:36.624Z,83.4
2022-11-09T05:50:37.217Z,83.7
2022-11-09T05:51:37.811Z,84.0
2022-11-09T05:52:38.405Z,83.5
2022-11-09T05:53:42.355Z,83.5
2022-11-09T05:54:40.581Z,83.4
2022-11-09T05:55:41.174Z,84.3
2022-11-09T05:56:41.765Z,83.9
2022-11-09T05:57:42.361Z,83.4
2022-11-09T05:58:42.951Z,83.5
2022-11-09T05:59:43.545Z,83.6
2022-11-09T06:00:44.137Z,84.3
2022-11-09T06:01:44.759Z,84.1
2022-11-09T06:02:45.323Z,83.7
2022-11-09T06:03:45.936Z,84.2
2022-11-09T06:04:46.544Z,84.2
2022-11-09T06:05:47.137Z,84.0
2022-11-09T06:06:47.831Z,84.3
2022-11-09T06:07:48.408Z,84.3
2022-11-09T06:08:48.999Z,84.1
2022-11-09T06:09:49.613Z,84.2
2022-11-09T06:10:50.212Z,83.9
2022-11-09T06:11:50.826Z,84.2
2022-11-09T06:12:51.417Z,84.3
2022-11-09T06:13:52.011Z,84.3
2022-11-09T06:14:52.610Z,83.9
2022-11-09T06:15:53.195Z,84.9
2022-11-09T06:16:53.789Z,84.6
2022-11-09T06:17:54.392Z,84.5
2022-11-09T06:18:54.976Z,84.3
2022-11-09T06:19:55.583Z,84.5
2022-11-09T06:20:56.167Z,84.3
2022-11-09T06:21:56.775Z,84.2
2022-11-09T06:23:02.525Z,84.2
2022-11-09T06:23:58.976Z,85.0
2022-11-09T06:24:59.568Z,84.8
2022-11-09T06:26:00.165Z,84.8
2022-11-09T06:27:00.755Z,84.8
2022-11-09T06:28:01.352Z,84.8
2022-11-09T06:29:01.966Z,84.0
2022-11-09T06:30:02.569Z,84.0
2022-11-09T06:31:03.248Z,84.1
2022-11-09T06:32:03.766Z,84.1
2022-11-09T06:33:04.359Z,83.9
2022-11-09T06:34:04.958Z,84.2
2022-11-09T06:35:05.551Z,84.2
2022-11-09T06:36:06.149Z,84.1
2022-11-09T06:37:06.744Z,84.2
2022-11-09T06:38:07.345Z,84.0
2022-11-09T06:39:07.936Z,84.2
2022-11-09T06:40:08.535Z,84.1
2022-11-09T06:41:09.130Z,84.1
2022-11-09T06:42:09.785Z,84.1
2022-11-09T06:43:10.334Z,84.4
2022-11-09T06:44:10.932Z,84.3
2022-11-09T06:45:11.523Z,84.0
2022-11-09T06:46:12.122Z,84.3
2022-11-09T06:47:12.740Z,84.2
2022-11-09T06:48:13.332Z,84.0
2022-11-09T06:49:13.929Z,83.7
2022-11-09T06:50:14.527Z,84.2
2022-11-09T06:51:15.125Z,84.2
2022-11-09T06:52:15.723Z,84.3
2022-11-09T06:53:16.323Z,84.4
2022-11-09T06:54:16.935Z,84.1
2022-11-09T06:55:17.533Z,84.5
2022-11-09T06:56:18.130Z,83.8
2022-11-09T06:57:18.728Z,83.4
2022-11-09T06:58:19.329Z,83.4
2022-11-09T06:59:19.944Z,83.5
2022-11-09T07:00:20.549Z,83.7
2022-11-09T07:01:21.207Z,83.8
2022-11-09T07:02:21.794Z,83.8
2022-11-09T07:03:22.696Z,84.2
2022-11-09T07:04:23.609Z,83.9
2022-11-09T07:05:24.253Z,84.0
2022-11-09T07:06:24.888Z,83.8
2022-11-09T07:07:28.236Z,84.3
2022-11-09T07:08:27.078Z,84.1
2022-11-09T07:09:27.674Z,83.7
2022-11-09T07:10:28.268Z,84.5
2022-11-09T07:11:28.869Z,83.9
2022-11-09T07:12:29.467Z,83.7
2022-11-09T07:13:30.066Z,83.5
2022-11-09T07:14:30.663Z,83.6
2022-11-09T07:15:31.265Z,83.6
2022-11-09T07:16:31.857Z,83.3
2022-11-09T07:17:32.455Z,83.3
2022-11-09T07:18:33.052Z,83.1
2022-11-09T07:19:33.651Z,83.4
2022-11-09T07:20:34.248Z,83.3
2022-11-09T07:21:34.849Z,83.6
2022-11-09T07:22:35.462Z,83.5
2022-11-09T07:23:36.060Z,83.5
2022-11-09T07:24:36.657Z,83.1
2022-11-09T07:25:37.253Z,83.0
2022-11-09T07:26:37.850Z,83.0
2022-11-09T07:27:38.469Z,83.5
2022-11-09T07:28:39.065Z,83.1
2022-11-09T07:29:39.665Z,83.1
2022-11-09T07:30:40.274Z,83.1
2022-11-09T07:31:40.860Z,83.6
2022-11-09T07:33:43.048Z,83.1
2022-11-09T07:34:43.647Z,83.6
2022-11-09T07:35:44.244Z,83.7
2022-11-09T07:36:44.841Z,83.8
2022-11-09T07:37:45.439Z,83.7
2022-11-09T07:38:46.036Z,83.9
2022-11-09T07:39:46.635Z,83.8
2022-11-09T07:40:47.238Z,83.4
2022-11-09T07:41:47.860Z,83.1
2022-11-09T07:42:48.443Z,83.1
2022-11-09T07:43:49.044Z,83.2
2022-11-09T07:44:49.641Z,82.7
2022-11-09T07:45:50.240Z,83.0
2022-11-09T07:46:50.922Z,83.5
2022-11-09T07:47:51.669Z,82.9
2022-11-09T07:48:52.268Z,82.2
2022-11-09T07:49:52.865Z,82.3
2022-11-09T07:50:53.461Z,82.4
2022-11-09T07:51:54.061Z,82.1
2022-11-09T07:52:54.677Z,82.3
2022-11-09T07:53:55.275Z,82.7
2022-11-09T07:54:55.870Z,83.4
2022-11-09T07:55:56.470Z,83.6
2022-11-09T07:56:57.087Z,83.0
2022-11-09T07:57:57.706Z,83.5
2022-11-09T07:58:58.300Z,83.9
2022-11-09T07:59:58.901Z,83.8
2022-11-09T08:00:59.496Z,83.8
2022-11-09T08:02:00.163Z,84.1
2022-11-09T08:03:00.761Z,84.3
2022-11-09T08:04:01.366Z,84.3
2022-11-09T08:05:01.953Z,84.5
2022-11-09T08:06:02.572Z,84.0
2022-11-09T08:07:03.194Z,83.7
2022-11-09T08:08:03.804Z,83.2
2022-11-09T08:09:04.404Z,83.0
2022-11-09T08:10:05.022Z,83.2
2022-11-09T08:11:05.618Z,82.7
2022-11-09T08:12:06.213Z,82.7
2022-11-09T08:13:06.811Z,82.5
2022-11-09T08:14:07.410Z,83.2
2022-11-09T08:15:08.006Z,83.1
2022-11-09T08:16:08.605Z,82.6
2022-11-09T08:17:09.203Z,82.5
2022-11-09T08:18:09.801Z,82.4
2022-11-09T08:19:10.397Z,82.2
2022-11-09T08:20:10.996Z,82.1
2022-11-09T08:21:11.614Z,82.4
2022-11-09T08:22:12.215Z,82.1
2022-11-09T08:23:12.811Z,82.0
2022-11-09T08:24:13.432Z,82.3
2022-11-09T08:25:14.026Z,82.5
2022-11-09T08:26:14.627Z,82.9
2022-11-09T08:27:15.223Z,82.8
2022-11-09T08:28:15.821Z,82.9
2022-11-09T08:29:16.418Z,83.4
2022-11-09T08:30:17.017Z,82.9
2022-11-09T08:31:17.673Z,83.2
2022-11-09T08:32:18.214Z,83.6
2022-11-09T08:33:18.810Z,83.0
2022-11-09T08:34:19.413Z,83.5
2022-11-09T08:35:20.008Z,83.3
2022-11-09T08:36:20.622Z,83.8
2022-11-09T08:37:21.219Z,84.3
2022-11-09T08:38:22.218Z,84.3
2022-11-09T08:39:22.896Z,84.2
2022-11-09T08:40:23.492Z,84.5
2022-11-09T08:41:24.093Z,84.3
2022-11-09T08:42:24.693Z,84.2
2022-11-09T08:43:25.293Z,83.8
2022-11-09T08:44:25.891Z,83.3
2022-11-09T08:45:26.490Z,83.0
2022-11-09T08:46:27.092Z,83.1
2022-11-09T08:47:27.688Z,82.9
2022-11-09T08:48:28.290Z,83.3
2022-11-09T08:49:28.894Z,82.9
2022-11-09T08:50:29.534Z,83.1
2022-11-09T08:51:30.110Z,83.5
2022-11-09T08:52:30.711Z,83.4
2022-11-09T08:53:31.309Z,83.4
2022-11-09T08:54:31.907Z,83.0
2022-11-09T08:55:32.527Z,83.0
2022-11-09T08:56:33.134Z,83.0
2022-11-09T08:57:33.724Z,83.1
2022-11-09T08:58:34.323Z,83.1
2022-11-09T08:59:34.918Z,82.8
2022-11-09T09:00:35.518Z,83.3
2022-11-09T09:01:36.150Z,83.0
2022-11-09T09:02:36.742Z,83.6
2022-11-09T09:03:37.327Z,83.2
2022-11-09T09:04:37.943Z,84.0
2022-11-09T09:05:38.541Z,83.9
2022-11-09T09:06:39.176Z,83.4
2022-11-09T09:07:39.743Z,83.4
2022-11-09T09:08:40.335Z,83.9
2022-11-09T09:09:40.952Z,83.4
2022-11-09T09:10:41.553Z,83.3
2022-11-09T09:11:42.151Z,82.6
2022-11-09T09:12:42.768Z,83.0
2022-11-09T09:13:43.892Z,82.8
2022-11-09T09:14:44.475Z,83.4
2022-11-09T09:15:45.072Z,83.1
2022-11-09T09:16:45.673Z,82.8
2022-11-09T09:17:46.270Z,83.0
2022-11-09T09:18:46.869Z,82.2
2022-11-09T09:19:50.130Z,82.1
2022-11-09T09:20:49.062Z,82.0
2022-11-09T09:21:49.678Z,81.9
2022-11-09T09:22:50.277Z,82.2
2022-11-09T09:23:50.875Z,83.6
2022-11-09T09:24:51.475Z,82.9
2022-11-09T09:25:55.191Z,83.0
2022-11-09T09:26:53.668Z,83.5
2022-11-09T09:27:54.268Z,82.9
2022-11-09T09:28:54.885Z,83.1
2022-11-09T09:29:55.481Z,82.7
2022-11-09T09:30:56.083Z,82.6
2022-11-09T09:31:56.679Z,82.3
2022-11-09T09:32:57.283Z,82.3
2022-11-09T09:33:57.897Z,81.9
2022-11-09T09:34:58.498Z,82.3
2022-11-09T09:35:59.107Z,82.1
2022-11-09T09:36:59.715Z,82.7
2022-11-09T09:38:00.317Z,82.8
2022-11-09T09:39:00.936Z,82.7
2022-11-09T09:40:01.538Z,83.0
2022-11-09T09:41:02.135Z,83.2
2022-11-09T09:42:02.735Z,83.1
2022-11-09T09:43:03.333Z,82.7
2022-11-09T09:44:03.932Z,83.1
2022-11-09T09:45:04.549Z,83.1
2022-11-09T09:46:05.147Z,82.9
2022-11-09T09:47:05.752Z,83.8
2022-11-09T09:48:06.366Z,82.9
2022-11-09T09:49:06.964Z,82.7
2022-11-09T09:50:07.601Z,82.7
2022-11-09T09:51:08.176Z,83.3
2022-11-09T09:52:08.775Z,83.1
2022-11-09T09:53:23.766Z,82.6
2022-11-09T09:54:10.963Z,83.2
2022-11-09T09:55:11.564Z,82.2
2022-11-09T09:56:12.269Z,82.4
2022-11-09T09:57:12.955Z,82.1
2022-11-09T09:58:13.550Z,81.5
2022-11-09T09:59:14.155Z,81.6
2022-11-09T10:00:14.765Z,81.6
2022-11-09T10:01:15.349Z,81.5
2022-11-09T10:02:15.949Z,81.5
2022-11-09T10:03:16.552Z,81.3
2022-11-09T10:04:17.188Z,81.1
2022-11-09T10:05:17.774Z,80.8
2022-11-09T10:06:18.372Z,80.5
2022-11-09T10:07:19.174Z,80.8
2022-11-09T10:08:20.090Z,80.6
2022-11-09T10:09:20.809Z,80.4
2022-11-09T10:10:21.403Z,80.5
2022-11-09T10:11:22.004Z,80.4
2022-11-09T10:12:22.603Z,80.6
2022-11-09T10:13:23.206Z,80.8
2022-11-09T10:14:23.805Z,80.8
2022-11-09T10:15:24.408Z,80.5
2022-11-09T10:16:25.005Z,80.8
2022-11-09T10:17:25.609Z,79.5
2022-11-09T10:18:26.206Z,79.0
2022-11-09T10:19:26.806Z,77.8
2022-11-09T10:20:27.409Z,78.2
2022-11-09T10:21:28.008Z,77.9
2022-11-09T10:22:28.612Z,77.0
2022-11-09T10:23:29.220Z,77.3
2022-11-09T10:24:29.831Z,77.3
2022-11-09T10:25:50.784Z,76.5
2022-11-09T10:26:32.026Z,76.5
2022-11-09T10:27:32.625Z,75.8
2022-11-09T10:28:54.215Z,75.8
2022-11-09T10:29:34.839Z,76.1
2022-11-09T10:30:35.438Z,75.5
2022-11-09T10:31:36.037Z,75.3
2022-11-09T10:32:36.645Z,75.5
2022-11-09T10:33:37.255Z,75.0
2022-11-09T10:34:37.854Z,75.0
2022-11-09T10:35:38.456Z,75.0
2022-11-09T10:36:39.077Z,74.2
2022-11-09T10:37:39.681Z,73.8
2022-11-09T10:38:40.281Z,74.6
2022-11-09T10:39:40.882Z,74.4
2022-11-09T10:40:41.480Z,74.4
2022-11-09T10:41:42.083Z,74.3
2022-11-09T10:42:42.703Z,74.6
2022-11-09T10:43:43.304Z,74.2
2022-11-09T10:44:43.908Z,74.2
2022-11-09T10:45:44.508Z,74.5
2022-11-09T10:46:45.108Z,74.5
2022-11-09T10:47:45.711Z,74.1
2022-11-09T10:48:46.329Z,74.4
2022-11-09T10:49:46.948Z,74.2
2022-11-09T10:50:47.574Z,74.6
2022-11-09T10:51:48.190Z,74.8
2022-11-09T10:52:48.791Z,74.1
2022-11-09T10:53:49.395Z,74.3
2022-11-09T10:54:49.997Z,74.6
2022-11-09T10:55:50.615Z,74.3
2022-11-09T10:57:05.720Z,74.5
2022-11-09T10:57:52.826Z,74.5
2022-11-09T10:58:53.431Z,74.0
2022-11-09T10:59:54.046Z,73.3
2022-11-09T11:00:54.673Z,73.9
2022-11-09T11:02:00.982Z,74.0
2022-11-09T11:02:56.837Z,73.4
2022-11-09T11:03:57.436Z,73.3
2022-11-09T11:04:58.037Z,73.9
2022-11-09T11:05:58.637Z,72.8
2022-11-09T11:06:59.306Z,72.9
2022-11-09T11:07:59.902Z,72.9
2022-11-09T11:09:00.500Z,74.3
2022-11-09T11:10:01.109Z,73.1
2022-11-09T11:11:19.497Z,74.1
2022-11-09T11:12:03.298Z,73.4
2022-11-09T11:13:03.898Z,72.6
2022-11-09T11:14:04.499Z,72.7
2022-11-09T11:15:05.139Z,72.4
2022-11-09T11:16:05.699Z,73.5
2022-11-09T11:17:06.302Z,72.9
2022-11-09T11:18:06.901Z,73.3
2022-11-09T11:19:07.504Z,73.2
2022-11-09T11:20:08.104Z,72.9
2022-11-09T11:21:08.707Z,72.7
2022-11-09T11:22:09.326Z,71.6
2022-11-09T11:23:09.927Z,72.9
2022-11-09T11:24:10.526Z,72.9
2022-11-09T11:25:11.127Z,73.7
2022-11-09T11:26:11.730Z,74.0
2022-11-09T11:27:12.330Z,73.3
2022-11-09T11:28:12.930Z,73.8
2022-11-09T11:29:13.533Z,74.1
2022-11-09T11:30:14.132Z,74.1
2022-11-09T11:31:14.731Z,73.4
2022-11-09T11:32:15.353Z,74.0
2022-11-09T11:33:15.954Z,74.4
2022-11-09T11:34:38.497Z,74.3
2022-11-09T11:35:18.150Z,74.8
2022-11-09T11:36:18.751Z,74.3
2022-11-09T11:37:19.372Z,74.4
2022-11-09T11:38:20.380Z,73.8
2022-11-09T11:39:21.189Z,74.5
2022-11-09T11:40:21.810Z,74.3
2022-11-09T11:41:22.889Z,73.4
2022-11-09T11:42:23.488Z,73.7
2022-11-09T11:43:24.100Z,73.2
2022-11-09T11:44:24.690Z,74.0
2022-11-09T11:45:40.136Z,74.2
2022-11-09T11:46:26.777Z,74.3
2022-11-09T11:47:27.379Z,74.5
2022-11-09T11:48:27.997Z,73.6
2022-11-09T11:49:28.597Z,73.8
2022-11-09T11:50:29.197Z,73.2
2022-11-09T11:51:29.798Z,73.1
2022-11-09T11:52:30.398Z,73.1
2022-11-09T11:53:31.018Z,73.1
2022-11-09T11:54:31.620Z,72.9
2022-11-09T11:55:32.221Z,72.3
2022-11-09T11:56:32.819Z,71.1
2022-11-09T11:57:33.420Z,70.1
2022-11-09T11:58:34.018Z,70.3
2022-11-09T11:59:34.638Z,70.5
2022-11-09T12:00:35.234Z,70.6
2022-11-09T12:01:35.833Z,70.7
2022-11-09T12:02:36.485Z,70.5
2022-11-09T12:03:37.067Z,70.0
2022-11-09T12:04:37.668Z,70.7
2022-11-09T12:05:38.268Z,70.6
2022-11-09T12:06:39.815Z,70.4
2022-11-09T12:07:40.461Z,70.4
2022-11-09T12:08:41.062Z,69.6
2022-11-09T12:09:41.662Z,70.4
2022-11-09T12:10:42.283Z,69.5
2022-11-09T12:11:42.880Z,70.7
2022-11-09T12:12:43.480Z,70.6
2022-11-09T12:13:49.330Z,71.1
2022-11-09T12:14:45.675Z,70.9
2022-11-09T12:15:46.284Z,70.9
2022-11-09T12:16:46.876Z,70.8
2022-11-09T12:17:47.477Z,69.7
2022-11-09T12:18:48.074Z,70.1
2022-11-09T12:19:48.675Z,69.6
2022-11-09T12:20:49.280Z,70.5
2022-11-09T12:21:49.899Z,69.5
2022-11-09T12:22:50.495Z,69.3
2022-11-09T12:23:51.095Z,69.3
2022-11-09T12:24:51.694Z,69.2
2022-11-09T12:25:52.308Z,68.7
2022-11-09T12:27:10.989Z,68.5
2022-11-09T12:27:54.499Z,68.6
2022-11-09T12:28:55.098Z,68.9
2022-11-09T12:29:55.702Z,69.1
2022-11-09T12:30:56.299Z,68.9
2022-11-09T12:31:56.918Z,69.5
2022-11-09T12:32:57.515Z,68.4
2022-11-09T12:33:58.116Z,68.7
2022-11-09T12:34:58.715Z,68.7
2022-11-09T12:35:59.356Z,69.0
2022-11-09T12:36:59.936Z,69.5
2022-11-09T12:38:00.537Z,69.6
2022-11-09T12:39:01.134Z,69.3
2022-11-09T12:40:01.736Z,69.3
2022-11-09T12:41:02.333Z,69.2
2022-11-09T12:42:02.936Z,69.5
2022-11-09T12:43:03.535Z,69.8
2022-11-09T12:44:04.133Z,69.7
2022-11-09T12:45:04.735Z,69.7
2022-11-09T12:46:05.329Z,69.4
2022-11-09T12:47:05.952Z,69.4
2022-11-09T12:48:06.546Z,69.4
2022-11-09T12:49:07.143Z,69.3
2022-11-09T12:50:07.741Z,69.6
2022-11-09T12:51:08.337Z,70.1
2022-11-09T12:52:08.935Z,69.8
2022-11-09T12:53:09.535Z,69.8
2022-11-09T12:54:10.133Z,69.8
2022-11-09T12:55:10.752Z,69.2
2022-11-09T12:56:11.351Z,69.7
2022-11-09T12:57:11.951Z,69.5
2022-11-09T12:58:12.550Z,69.4
2022-11-09T12:59:13.149Z,69.2
2022-11-09T13:00:13.766Z,69.3
2022-11-09T13:01:14.447Z,69.4
2022-11-09T13:02:14.977Z,68.8
2022-11-09T13:03:15.592Z,69.4
2022-11-09T13:04:16.194Z,69.4
2022-11-09T13:05:16.793Z,69.4
2022-11-09T13:06:17.403Z,69.4
2022-11-09T13:07:18.033Z,69.4
2022-11-09T13:08:18.624Z,69.3
2022-11-09T13:09:19.245Z,69.4
2022-11-09T13:10:19.863Z,69.6
2022-11-09T13:11:20.460Z,69.5
2022-11-09T13:12:21.062Z,69.2
2022-11-09T13:13:21.985Z,69.2
2022-11-09T13:14:22.272Z,69.4
2022-11-09T13:15:22.869Z,70.1
2022-11-09T13:16:23.470Z,69.9
2022-11-09T13:17:24.068Z,69.8
2022-11-09T13:18:24.668Z,69.9
2022-11-09T13:19:25.266Z,69.9
2022-11-09T13:20:48.603Z,69.4
2022-11-09T13:21:26.567Z,69.2
2022-11-09T13:22:27.190Z,69.2
2022-11-09T13:23:47.765Z,69.3
2022-11-09T13:24:28.418Z,69.5
2022-11-09T13:25:29.022Z,68.8
2022-11-09T13:26:29.618Z,68.8
2022-11-09T13:27:30.213Z,69.2